Port O'Connor, TX (77982)

8:48 PM CST on March 04, 2015 (GMT -0600)
coastal plains | Change Station
CLOSE
Current Station
Personal Weather Station
Location: Seadrift, TX
Elevation: 13 ft
Nearby Weather Stations
Active Advisory: Wind Advisory

Elev 13 ft 28.41 °N, 96.63 °W | Updated 4 seconds ago

Overcast
Overcast
67.8 °F
Feels Like 67.8 °F
N
2.0
Wind Variable Wind from ENE
Gusts 3.0 mph

Today
High -- | Low -- °F
--% Chance of Precip.
Yesterday
High -- | Low -- °F
Precip. -- in
6:48 AM 6:28 PM
Full, 100% visible
Pressure 29.86 in
Visibility 3.0 miles
Clouds Scattered Clouds 100 ft
Scattered Clouds 1100 ft
Overcast 5500 ft
Dew Point 66 °F
Humidity 94%
Rainfall 0.00 in
Snow Depth Not available.
UV 0 out of 12
Pollen 8.90 out of 12
Air Quality Not available.
Flu Activity Not available.
METAR KPKV 050215Z AUTO 14006KT 3SM BR SCT001 SCT011 OVC055 20/19 A2986 RMK AO2 T01990194

More Conditions Fewer Conditions

Pressure 29.86 in
Visibility 3.0 miles
Clouds Scattered Clouds 100 ft
Scattered Clouds 1100 ft
Overcast 5500 ft
Dew Point 66 °F
Humidity 94%
Rainfall 0.00 in
Snow Depth Not available.
UV 0 out of 12
Pollen 8.90 out of 12
Air Quality Not available.
Flu Activity Not available.
METAR KPKV 050215Z AUTO 14006KT 3SM BR SCT001 SCT011 OVC055 20/19 A2986 RMK AO2 T01990194

More Conditions Fewer Conditions

Nowcast | as of 6:50 PM CST on March 4, 2015

Fog will affect the middle Texas coastal waters...the adjacent bays and waterways...as well as the coastline this evening. Through 9 PM CST...the visibility will be constantly changing...ranging from 5 miles in a light mist...down to near zero in a dense fog.

×

10-Day Weather Forecast

Almanac

Astronomy

Mar. 04, 2015 Rise Set
Actual Time
Civil Twilight
Nautical Twilight
Astronomical Twilight
Moon
Length of Visible Light
Length of Day
Tomorrow will be .
, % of the Moon is Illuminated

Today's Extremes

State Highs State Lows

Community

WunderPhotos

Upload Photos

1,802,634 photos uploaded!

WunderBlogs® & News

Nearby

Air Quality

  Air Quality AQ Index Pollutant
Not available.

Snow Depth

Station Depth Elevation

Earthquake Activity

City Distance Mag. Time & Date
Minimum magnitude displayed is 2.5.

Coastal Water Temperatures

Place Temperature

Nearby Weather Stations

Wind Advisory
Statement as of 6:48 PM CST on March 04, 2015

... Wind Advisory now in effect from midnight tonight to 9 am CST
Thursday...

* timing... late tonight through early Thursday morning.

* Winds... sustained 25 to 35 mph... gusts between 35 to 40 mph
along the coastal Bend.

* Impacts... strong wind may render driving difficult. Certain
objects blown about by the wind may cause injury.

Precautionary/preparedness actions...

A Wind Advisory means that sustained winds of 30 mph or greater...
or wind gusts around 40 mph or greater are expected. Winds this
strong can make driving difficult... especially for high profile
vehicles. Use extra caution.



87